sensor_id;sensor_type;location;lat;lon;timestamp;P1;durP1;ratioP1;P2;durP2;ratioP2
33162;SDS011;29282;45.656;11.302;2023-08-07T00:01:20;0.60;;;0.60;;
33162;SDS011;29282;45.656;11.302;2023-08-07T00:03:45;0.50;;;0.50;;
33162;SDS011;29282;45.656;11.302;2023-08-07T00:06:12;0.57;;;0.57;;
33162;SDS011;29282;45.656;11.302;2023-08-07T00:08:38;0.60;;;0.60;;
33162;SDS011;29282;45.656;11.302;2023-08-07T00:11:04;0.80;;;0.80;;
33162;SDS011;29282;45.656;11.302;2023-08-07T00:13:30;1.02;;;0.90;;
33162;SDS011;29282;45.656;11.302;2023-08-07T00:15:56;0.70;;;0.70;;
33162;SDS011;29282;45.656;11.302;2023-08-07T00:18:21;1.00;;;0.70;;
33162;SDS011;29282;45.656;11.302;2023-08-07T00:20:47;0.70;;;0.70;;
33162;SDS011;29282;45.656;11.302;2023-08-07T00:23:12;0.60;;;0.60;;
33162;SDS011;29282;45.656;11.302;2023-08-07T00:25:38;0.50;;;0.50;;
33162;SDS011;29282;45.656;11.302;2023-08-07T00:28:03;0.75;;;0.75;;
33162;SDS011;29282;45.656;11.302;2023-08-07T00:30:29;0.70;;;0.70;;
33162;SDS011;29282;45.656;11.302;2023-08-07T00:32:55;0.70;;;0.70;;
33162;SDS011;29282;45.656;11.302;2023-08-07T00:35:20;0.63;;;0.63;;
33162;SDS011;29282;45.656;11.302;2023-08-07T00:37:48;0.98;;;0.80;;
33162;SDS011;29282;45.656;11.302;2023-08-07T00:40:14;0.60;;;0.60;;
33162;SDS011;29282;45.656;11.302;2023-08-07T00:42:39;0.70;;;0.70;;
33162;SDS011;29282;45.656;11.302;2023-08-07T00:45:05;0.55;;;0.55;;
33162;SDS011;29282;45.656;11.302;2023-08-07T00:47:31;1.58;;;0.90;;
33162;SDS011;29282;45.656;11.302;2023-08-07T00:49:57;0.60;;;0.60;;
33162;SDS011;29282;45.656;11.302;2023-08-07T00:52:27;0.70;;;0.70;;
33162;SDS011;29282;45.656;11.302;2023-08-07T00:54:52;0.88;;;0.80;;
33162;SDS011;29282;45.656;11.302;2023-08-07T00:57:18;0.80;;;0.75;;
33162;SDS011;29282;45.656;11.302;2023-08-07T00:59:47;0.85;;;0.80;;
33162;SDS011;29282;45.656;11.302;2023-08-07T01:02:14;0.65;;;0.65;;
33162;SDS011;29282;45.656;11.302;2023-08-07T01:04:40;0.50;;;0.50;;
33162;SDS011;29282;45.656;11.302;2023-08-07T01:07:05;0.70;;;0.70;;
33162;SDS011;29282;45.656;11.302;2023-08-07T01:09:31;0.60;;;0.60;;
33162;SDS011;29282;45.656;11.302;2023-08-07T01:12:18;0.60;;;0.60;;
33162;SDS011;29282;45.656;11.302;2023-08-07T01:17:35;0.90;;;0.90;;
33162;SDS011;29282;45.656;11.302;2023-08-07T01:20:02;0.52;;;0.52;;
33162;SDS011;29282;45.656;11.302;2023-08-07T01:22:29;0.43;;;0.43;;
33162;SDS011;29282;45.656;11.302;2023-08-07T01:24:57;0.63;;;0.63;;
33162;SDS011;29282;45.656;11.302;2023-08-07T01:35:36;0.63;;;0.63;;
33162;SDS011;29282;45.656;11.302;2023-08-07T01:38:06;0.77;;;0.73;;
33162;SDS011;29282;45.656;11.302;2023-08-07T01:40:32;0.80;;;0.80;;
33162;SDS011;29282;45.656;11.302;2023-08-07T01:43:00;0.60;;;0.60;;
33162;SDS011;29282;45.656;11.302;2023-08-07T01:45:26;0.90;;;0.60;;
33162;SDS011;29282;45.656;11.302;2023-08-07T01:47:53;0.80;;;0.50;;
33162;SDS011;29282;45.656;11.302;2023-08-07T01:50:19;0.52;;;0.52;;
33162;SDS011;29282;45.656;11.302;2023-08-07T01:52:45;0.55;;;0.55;;
33162;SDS011;29282;45.656;11.302;2023-08-07T01:55:16;0.43;;;0.43;;
33162;SDS011;29282;45.656;11.302;2023-08-07T01:57:43;0.60;;;0.60;;
33162;SDS011;29282;45.656;11.302;2023-08-07T02:00:08;0.70;;;0.70;;
33162;SDS011;29282;45.656;11.302;2023-08-07T02:02:36;0.70;;;0.60;;
33162;SDS011;29282;45.656;11.302;2023-08-07T02:05:02;0.47;;;0.47;;
33162;SDS011;29282;45.656;11.302;2023-08-07T02:07:29;0.65;;;0.65;;
33162;SDS011;29282;45.656;11.302;2023-08-07T02:09:54;0.45;;;0.45;;
33162;SDS011;29282;45.656;11.302;2023-08-07T02:12:20;0.57;;;0.50;;
33162;SDS011;29282;45.656;11.302;2023-08-07T02:14:45;0.50;;;0.50;;
33162;SDS011;29282;45.656;11.302;2023-08-07T02:17:11;1.23;;;0.50;;
33162;SDS011;29282;45.656;11.302;2023-08-07T02:19:36;0.40;;;0.40;;
33162;SDS011;29282;45.656;11.302;2023-08-07T02:22:02;0.80;;;0.80;;
33162;SDS011;29282;45.656;11.302;2023-08-07T02:24:28;0.60;;;0.60;;
33162;SDS011;29282;45.656;11.302;2023-08-07T02:26:54;0.57;;;0.57;;
33162;SDS011;29282;45.656;11.302;2023-08-07T02:29:19;0.50;;;0.50;;
33162;SDS011;29282;45.656;11.302;2023-08-07T02:31:45;0.60;;;0.60;;
33162;SDS011;29282;45.656;11.302;2023-08-07T02:34:10;0.40;;;0.40;;
33162;SDS011;29282;45.656;11.302;2023-08-07T02:36:36;0.50;;;0.50;;
33162;SDS011;29282;45.656;11.302;2023-08-07T02:39:01;0.52;;;0.52;;
33162;SDS011;29282;45.656;11.302;2023-08-07T02:41:27;0.63;;;0.63;;
33162;SDS011;29282;45.656;11.302;2023-08-07T02:43:53;0.70;;;0.70;;
33162;SDS011;29282;45.656;11.302;2023-08-07T02:46:18;0.60;;;0.60;;
33162;SDS011;29282;45.656;11.302;2023-08-07T02:48:44;0.50;;;0.50;;
33162;SDS011;29282;45.656;11.302;2023-08-07T02:51:09;0.57;;;0.57;;
33162;SDS011;29282;45.656;11.302;2023-08-07T02:53:38;0.50;;;0.50;;
33162;SDS011;29282;45.656;11.302;2023-08-07T02:56:03;0.60;;;0.60;;
33162;SDS011;29282;45.656;11.302;2023-08-07T02:58:29;0.40;;;0.40;;
33162;SDS011;29282;45.656;11.302;2023-08-07T03:00:54;0.30;;;0.30;;
33162;SDS011;29282;45.656;11.302;2023-08-07T03:03:20;0.90;;;0.60;;
33162;SDS011;29282;45.656;11.302;2023-08-07T03:05:49;0.55;;;0.55;;
33162;SDS011;29282;45.656;11.302;2023-08-07T03:08:15;0.60;;;0.60;;
33162;SDS011;29282;45.656;11.302;2023-08-07T03:10:41;1.55;;;0.50;;
33162;SDS011;29282;45.656;11.302;2023-08-07T03:13:07;0.50;;;0.50;;
33162;SDS011;29282;45.656;11.302;2023-08-07T03:15:32;0.55;;;0.55;;
33162;SDS011;29282;45.656;11.302;2023-08-07T03:17:58;0.47;;;0.47;;
33162;SDS011;29282;45.656;11.302;2023-08-07T03:20:23;0.55;;;0.55;;
33162;SDS011;29282;45.656;11.302;2023-08-07T03:22:49;0.47;;;0.47;;
33162;SDS011;29282;45.656;11.302;2023-08-07T03:25:15;0.63;;;0.63;;
33162;SDS011;29282;45.656;11.302;2023-08-07T03:27:40;0.45;;;0.45;;
33162;SDS011;29282;45.656;11.302;2023-08-07T03:30:06;0.85;;;0.85;;
33162;SDS011;29282;45.656;11.302;2023-08-07T03:32:32;0.82;;;0.73;;
33162;SDS011;29282;45.656;11.302;2023-08-07T03:34:58;0.52;;;0.52;;
33162;SDS011;29282;45.656;11.302;2023-08-07T03:37:23;0.50;;;0.50;;
33162;SDS011;29282;45.656;11.302;2023-08-07T03:39:51;0.60;;;0.60;;
33162;SDS011;29282;45.656;11.302;2023-08-07T03:42:17;0.50;;;0.50;;
33162;SDS011;29282;45.656;11.302;2023-08-07T03:44:42;1.02;;;0.47;;
33162;SDS011;29282;45.656;11.302;2023-08-07T03:47:08;0.57;;;0.57;;
33162;SDS011;29282;45.656;11.302;2023-08-07T03:49:33;0.68;;;0.60;;
33162;SDS011;29282;45.656;11.302;2023-08-07T03:54:34;0.50;;;0.50;;
33162;SDS011;29282;45.656;11.302;2023-08-07T03:57:02;0.60;;;0.60;;
33162;SDS011;29282;45.656;11.302;2023-08-07T03:59:28;0.55;;;0.55;;
33162;SDS011;29282;45.656;11.302;2023-08-07T04:01:53;0.45;;;0.45;;
33162;SDS011;29282;45.656;11.302;2023-08-07T04:04:19;1.05;;;0.65;;
33162;SDS011;29282;45.656;11.302;2023-08-07T04:06:44;0.65;;;0.65;;
33162;SDS011;29282;45.656;11.302;2023-08-07T04:09:10;0.60;;;0.60;;
33162;SDS011;29282;45.656;11.302;2023-08-07T04:11:36;0.60;;;0.60;;
33162;SDS011;29282;45.656;11.302;2023-08-07T04:14:01;0.60;;;0.60;;
33162;SDS011;29282;45.656;11.302;2023-08-07T04:16:27;0.60;;;0.60;;
33162;SDS011;29282;45.656;11.302;2023-08-07T04:18:53;0.80;;;0.70;;
33162;SDS011;29282;45.656;11.302;2023-08-07T04:21:18;1.08;;;0.57;;
33162;SDS011;29282;45.656;11.302;2023-08-07T04:23:44;1.50;;;0.60;;
33162;SDS011;29282;45.656;11.302;2023-08-07T04:26:09;0.50;;;0.50;;
33162;SDS011;29282;45.656;11.302;2023-08-07T04:28:35;0.45;;;0.45;;
33162;SDS011;29282;45.656;11.302;2023-08-07T04:31:00;0.57;;;0.57;;
33162;SDS011;29282;45.656;11.302;2023-08-07T04:33:26;0.63;;;0.50;;
33162;SDS011;29282;45.656;11.302;2023-08-07T04:35:51;0.57;;;0.57;;
33162;SDS011;29282;45.656;11.302;2023-08-07T04:38:17;0.52;;;0.50;;
33162;SDS011;29282;45.656;11.302;2023-08-07T04:40:46;1.02;;;0.70;;
33162;SDS011;29282;45.656;11.302;2023-08-07T04:43:13;0.45;;;0.45;;
33162;SDS011;29282;45.656;11.302;2023-08-07T04:45:39;0.52;;;0.52;;
33162;SDS011;29282;45.656;11.302;2023-08-07T04:48:06;0.60;;;0.60;;
33162;SDS011;29282;45.656;11.302;2023-08-07T04:50:32;0.82;;;0.30;;
33162;SDS011;29282;45.656;11.302;2023-08-07T04:52:58;1.13;;;0.77;;
33162;SDS011;29282;45.656;11.302;2023-08-07T04:55:23;0.52;;;0.52;;
33162;SDS011;29282;45.656;11.302;2023-08-07T04:57:49;0.73;;;0.65;;
33162;SDS011;29282;45.656;11.302;2023-08-07T05:00:16;0.50;;;0.50;;
33162;SDS011;29282;45.656;11.302;2023-08-07T05:02:42;0.40;;;0.40;;
33162;SDS011;29282;45.656;11.302;2023-08-07T05:05:08;0.80;;;0.50;;
33162;SDS011;29282;45.656;11.302;2023-08-07T05:07:34;0.60;;;0.60;;
33162;SDS011;29282;45.656;11.302;2023-08-07T05:10:01;0.50;;;0.50;;
33162;SDS011;29282;45.656;11.302;2023-08-07T05:12:28;0.40;;;0.40;;
33162;SDS011;29282;45.656;11.302;2023-08-07T05:14:54;0.60;;;0.60;;
33162;SDS011;29282;45.656;11.302;2023-08-07T05:17:19;0.45;;;0.45;;
33162;SDS011;29282;45.656;11.302;2023-08-07T05:19:45;0.40;;;0.40;;
33162;SDS011;29282;45.656;11.302;2023-08-07T05:22:10;0.40;;;0.40;;
33162;SDS011;29282;45.656;11.302;2023-08-07T05:24:36;0.50;;;0.50;;
33162;SDS011;29282;45.656;11.302;2023-08-07T05:27:08;0.50;;;0.50;;
33162;SDS011;29282;45.656;11.302;2023-08-07T05:29:36;0.40;;;0.40;;
33162;SDS011;29282;45.656;11.302;2023-08-07T05:32:11;0.70;;;0.60;;
33162;SDS011;29282;45.656;11.302;2023-08-07T05:34:38;0.52;;;0.52;;
33162;SDS011;29282;45.656;11.302;2023-08-07T05:37:04;1.60;;;0.50;;
33162;SDS011;29282;45.656;11.302;2023-08-07T05:39:30;0.68;;;0.63;;
33162;SDS011;29282;45.656;11.302;2023-08-07T05:41:56;0.80;;;0.80;;
33162;SDS011;29282;45.656;11.302;2023-08-07T05:44:23;0.70;;;0.70;;
33162;SDS011;29282;45.656;11.302;2023-08-07T05:46:48;0.63;;;0.60;;
33162;SDS011;29282;45.656;11.302;2023-08-07T05:49:14;0.60;;;0.60;;
33162;SDS011;29282;45.656;11.302;2023-08-07T05:51:40;0.77;;;0.63;;
33162;SDS011;29282;45.656;11.302;2023-08-07T05:54:05;0.43;;;0.43;;
33162;SDS011;29282;45.656;11.302;2023-08-07T05:56:31;0.47;;;0.47;;
33162;SDS011;29282;45.656;11.302;2023-08-07T05:58:56;0.40;;;0.40;;
33162;SDS011;29282;45.656;11.302;2023-08-07T06:01:21;0.50;;;0.50;;
33162;SDS011;29282;45.656;11.302;2023-08-07T06:03:47;0.38;;;0.38;;
33162;SDS011;29282;45.656;11.302;2023-08-07T06:06:12;0.47;;;0.47;;
33162;SDS011;29282;45.656;11.302;2023-08-07T06:08:38;0.40;;;0.40;;
33162;SDS011;29282;45.656;11.302;2023-08-07T06:11:03;0.40;;;0.40;;
33162;SDS011;29282;45.656;11.302;2023-08-07T06:13:30;0.65;;;0.52;;
33162;SDS011;29282;45.656;11.302;2023-08-07T06:15:56;0.50;;;0.50;;
33162;SDS011;29282;45.656;11.302;2023-08-07T06:18:21;0.50;;;0.50;;
33162;SDS011;29282;45.656;11.302;2023-08-07T06:20:47;0.50;;;0.50;;
33162;SDS011;29282;45.656;11.302;2023-08-07T06:23:12;0.50;;;0.50;;
33162;SDS011;29282;45.656;11.302;2023-08-07T06:25:38;1.08;;;0.43;;
33162;SDS011;29282;45.656;11.302;2023-08-07T06:28:03;0.40;;;0.40;;
33162;SDS011;29282;45.656;11.302;2023-08-07T06:30:30;0.40;;;0.40;;
33162;SDS011;29282;45.656;11.302;2023-08-07T06:32:56;0.30;;;0.30;;
33162;SDS011;29282;45.656;11.302;2023-08-07T06:35:22;0.38;;;0.38;;
33162;SDS011;29282;45.656;11.302;2023-08-07T06:37:47;0.50;;;0.50;;
33162;SDS011;29282;45.656;11.302;2023-08-07T06:40:13;0.50;;;0.50;;
33162;SDS011;29282;45.656;11.302;2023-08-07T06:42:38;0.57;;;0.40;;
33162;SDS011;29282;45.656;11.302;2023-08-07T06:45:07;0.40;;;0.40;;
33162;SDS011;29282;45.656;11.302;2023-08-07T06:47:33;0.50;;;0.50;;
33162;SDS011;29282;45.656;11.302;2023-08-07T06:49:58;0.40;;;0.40;;
33162;SDS011;29282;45.656;11.302;2023-08-07T06:52:24;1.15;;;0.40;;
33162;SDS011;29282;45.656;11.302;2023-08-07T06:54:49;0.43;;;0.43;;
33162;SDS011;29282;45.656;11.302;2023-08-07T06:57:15;0.40;;;0.40;;
33162;SDS011;29282;45.656;11.302;2023-08-07T06:59:40;0.60;;;0.60;;
33162;SDS011;29282;45.656;11.302;2023-08-07T07:02:06;0.70;;;0.70;;
33162;SDS011;29282;45.656;11.302;2023-08-07T07:04:31;0.80;;;0.60;;
33162;SDS011;29282;45.656;11.302;2023-08-07T07:06:58;0.32;;;0.32;;
33162;SDS011;29282;45.656;11.302;2023-08-07T07:09:23;0.50;;;0.50;;
33162;SDS011;29282;45.656;11.302;2023-08-07T07:11:49;0.90;;;0.82;;
33162;SDS011;29282;45.656;11.302;2023-08-07T07:14:15;0.50;;;0.50;;
33162;SDS011;29282;45.656;11.302;2023-08-07T07:16:40;0.50;;;0.50;;
33162;SDS011;29282;45.656;11.302;2023-08-07T07:19:07;0.57;;;0.40;;
33162;SDS011;29282;45.656;11.302;2023-08-07T07:21:34;0.95;;;0.60;;
33162;SDS011;29282;45.656;11.302;2023-08-07T07:24:00;0.50;;;0.50;;
33162;SDS011;29282;45.656;11.302;2023-08-07T07:26:27;0.47;;;0.47;;
33162;SDS011;29282;45.656;11.302;2023-08-07T07:28:52;0.63;;;0.63;;
33162;SDS011;29282;45.656;11.302;2023-08-07T07:31:20;0.50;;;0.32;;
33162;SDS011;29282;45.656;11.302;2023-08-07T07:33:46;0.30;;;0.30;;
33162;SDS011;29282;45.656;11.302;2023-08-07T07:36:15;0.40;;;0.40;;
33162;SDS011;29282;45.656;11.302;2023-08-07T07:38:45;0.60;;;0.60;;
33162;SDS011;29282;45.656;11.302;2023-08-07T07:41:15;0.50;;;0.50;;
33162;SDS011;29282;45.656;11.302;2023-08-07T07:43:41;0.50;;;0.47;;
33162;SDS011;29282;45.656;11.302;2023-08-07T07:46:07;0.52;;;0.52;;
33162;SDS011;29282;45.656;11.302;2023-08-07T07:48:32;0.75;;;0.47;;
33162;SDS011;29282;45.656;11.302;2023-08-07T07:51:01;0.35;;;0.32;;
33162;SDS011;29282;45.656;11.302;2023-08-07T07:53:27;0.60;;;0.60;;
33162;SDS011;29282;45.656;11.302;2023-08-07T07:55:53;0.40;;;0.40;;
33162;SDS011;29282;45.656;11.302;2023-08-07T07:58:19;0.50;;;0.50;;
33162;SDS011;29282;45.656;11.302;2023-08-07T08:00:48;0.40;;;0.40;;
33162;SDS011;29282;45.656;11.302;2023-08-07T08:03:13;0.40;;;0.40;;
33162;SDS011;29282;45.656;11.302;2023-08-07T08:05:39;0.20;;;0.20;;
33162;SDS011;29282;45.656;11.302;2023-08-07T08:08:07;0.60;;;0.60;;
33162;SDS011;29282;45.656;11.302;2023-08-07T08:10:33;0.50;;;0.40;;
33162;SDS011;29282;45.656;11.302;2023-08-07T08:12:59;0.75;;;0.50;;
33162;SDS011;29282;45.656;11.302;2023-08-07T08:15:25;0.60;;;0.60;;
33162;SDS011;29282;45.656;11.302;2023-08-07T08:17:50;0.40;;;0.40;;
33162;SDS011;29282;45.656;11.302;2023-08-07T08:20:16;0.65;;;0.57;;
33162;SDS011;29282;45.656;11.302;2023-08-07T08:22:43;0.30;;;0.30;;
33162;SDS011;29282;45.656;11.302;2023-08-07T08:25:10;0.47;;;0.47;;
33162;SDS011;29282;45.656;11.302;2023-08-07T08:27:37;0.60;;;0.50;;
33162;SDS011;29282;45.656;11.302;2023-08-07T08:30:04;0.47;;;0.47;;
33162;SDS011;29282;45.656;11.302;2023-08-07T08:32:30;0.30;;;0.30;;
33162;SDS011;29282;45.656;11.302;2023-08-07T08:34:56;0.30;;;0.30;;
33162;SDS011;29282;45.656;11.302;2023-08-07T08:37:21;0.38;;;0.38;;
33162;SDS011;29282;45.656;11.302;2023-08-07T08:39:47;0.52;;;0.50;;
33162;SDS011;29282;45.656;11.302;2023-08-07T08:42:13;0.43;;;0.43;;
33162;SDS011;29282;45.656;11.302;2023-08-07T08:44:40;0.30;;;0.30;;
33162;SDS011;29282;45.656;11.302;2023-08-07T08:47:06;0.38;;;0.38;;
33162;SDS011;29282;45.656;11.302;2023-08-07T08:49:37;0.40;;;0.40;;
33162;SDS011;29282;45.656;11.302;2023-08-07T08:52:11;0.45;;;0.45;;
33162;SDS011;29282;45.656;11.302;2023-08-07T08:54:37;0.40;;;0.40;;
33162;SDS011;29282;45.656;11.302;2023-08-07T08:57:05;1.30;;;0.90;;
33162;SDS011;29282;45.656;11.302;2023-08-07T08:59:32;0.50;;;0.50;;
33162;SDS011;29282;45.656;11.302;2023-08-07T09:01:58;0.40;;;0.40;;
33162;SDS011;29282;45.656;11.302;2023-08-07T09:04:24;0.28;;;0.28;;
33162;SDS011;29282;45.656;11.302;2023-08-07T09:06:49;0.50;;;0.50;;
33162;SDS011;29282;45.656;11.302;2023-08-07T09:09:15;0.50;;;0.50;;
33162;SDS011;29282;45.656;11.302;2023-08-07T09:11:42;0.38;;;0.38;;
33162;SDS011;29282;45.656;11.302;2023-08-07T09:14:14;0.40;;;0.40;;
33162;SDS011;29282;45.656;11.302;2023-08-07T09:16:41;0.50;;;0.50;;
33162;SDS011;29282;45.656;11.302;2023-08-07T09:19:07;0.30;;;0.30;;
33162;SDS011;29282;45.656;11.302;2023-08-07T09:21:35;0.40;;;0.38;;
33162;SDS011;29282;45.656;11.302;2023-08-07T09:24:01;0.20;;;0.20;;
33162;SDS011;29282;45.656;11.302;2023-08-07T09:26:27;0.40;;;0.40;;
33162;SDS011;29282;45.656;11.302;2023-08-07T09:28:53;0.32;;;0.32;;
33162;SDS011;29282;45.656;11.302;2023-08-07T09:31:19;0.50;;;0.50;;
33162;SDS011;29282;45.656;11.302;2023-08-07T09:33:46;0.45;;;0.45;;
33162;SDS011;29282;45.656;11.302;2023-08-07T09:36:15;0.40;;;0.40;;
33162;SDS011;29282;45.656;11.302;2023-08-07T09:38:42;0.50;;;0.50;;
33162;SDS011;29282;45.656;11.302;2023-08-07T09:41:07;0.50;;;0.50;;
33162;SDS011;29282;45.656;11.302;2023-08-07T09:43:33;0.43;;;0.43;;
33162;SDS011;29282;45.656;11.302;2023-08-07T09:46:06;0.50;;;0.50;;
33162;SDS011;29282;45.656;11.302;2023-08-07T09:48:38;0.47;;;0.47;;
33162;SDS011;29282;45.656;11.302;2023-08-07T09:51:08;0.68;;;0.68;;
33162;SDS011;29282;45.656;11.302;2023-08-07T09:53:35;0.40;;;0.40;;
33162;SDS011;29282;45.656;11.302;2023-08-07T09:56:01;0.32;;;0.32;;
33162;SDS011;29282;45.656;11.302;2023-08-07T09:58:29;1.55;;;0.40;;
33162;SDS011;29282;45.656;11.302;2023-08-07T10:00:55;1.05;;;0.40;;
33162;SDS011;29282;45.656;11.302;2023-08-07T10:03:24;0.32;;;0.32;;
33162;SDS011;29282;45.656;11.302;2023-08-07T10:05:50;0.38;;;0.38;;
33162;SDS011;29282;45.656;11.302;2023-08-07T10:08:16;0.50;;;0.50;;
33162;SDS011;29282;45.656;11.302;2023-08-07T10:10:41;0.47;;;0.47;;
33162;SDS011;29282;45.656;11.302;2023-08-07T10:13:08;0.40;;;0.40;;
33162;SDS011;29282;45.656;11.302;2023-08-07T10:15:36;0.40;;;0.40;;
33162;SDS011;29282;45.656;11.302;2023-08-07T10:18:05;0.40;;;0.38;;
33162;SDS011;29282;45.656;11.302;2023-08-07T10:20:36;0.38;;;0.35;;
33162;SDS011;29282;45.656;11.302;2023-08-07T10:23:08;0.38;;;0.38;;
33162;SDS011;29282;45.656;11.302;2023-08-07T10:25:37;0.30;;;0.30;;
33162;SDS011;29282;45.656;11.302;2023-08-07T10:28:08;0.47;;;0.47;;
33162;SDS011;29282;45.656;11.302;2023-08-07T10:30:38;0.40;;;0.40;;
33162;SDS011;29282;45.656;11.302;2023-08-07T10:33:06;0.70;;;0.60;;
33162;SDS011;29282;45.656;11.302;2023-08-07T10:35:34;0.32;;;0.32;;
33162;SDS011;29282;45.656;11.302;2023-08-07T10:38:07;0.30;;;0.30;;
33162;SDS011;29282;45.656;11.302;2023-08-07T10:43:19;0.57;;;0.57;;
33162;SDS011;29282;45.656;11.302;2023-08-07T10:45:45;1.10;;;0.50;;
33162;SDS011;29282;45.656;11.302;2023-08-07T10:48:11;0.47;;;0.47;;
33162;SDS011;29282;45.656;11.302;2023-08-07T10:50:56;0.50;;;0.40;;
33162;SDS011;29282;45.656;11.302;2023-08-07T10:55:54;0.38;;;0.38;;
33162;SDS011;29282;45.656;11.302;2023-08-07T11:01:19;0.50;;;0.50;;
33162;SDS011;29282;45.656;11.302;2023-08-07T11:03:48;0.40;;;0.40;;
33162;SDS011;29282;45.656;11.302;2023-08-07T11:06:16;0.40;;;0.40;;
33162;SDS011;29282;45.656;11.302;2023-08-07T11:08:42;0.95;;;0.38;;
33162;SDS011;29282;45.656;11.302;2023-08-07T11:11:08;0.40;;;0.40;;
33162;SDS011;29282;45.656;11.302;2023-08-07T11:13:34;0.50;;;0.50;;
33162;SDS011;29282;45.656;11.302;2023-08-07T11:16:00;0.35;;;0.35;;
33162;SDS011;29282;45.656;11.302;2023-08-07T11:18:27;0.40;;;0.40;;
33162;SDS011;29282;45.656;11.302;2023-08-07T11:20:53;0.40;;;0.40;;
33162;SDS011;29282;45.656;11.302;2023-08-07T11:23:27;0.35;;;0.35;;
33162;SDS011;29282;45.656;11.302;2023-08-07T11:25:55;0.50;;;0.50;;
33162;SDS011;29282;45.656;11.302;2023-08-07T11:28:21;0.40;;;0.40;;
33162;SDS011;29282;45.656;11.302;2023-08-07T11:30:48;0.40;;;0.40;;
33162;SDS011;29282;45.656;11.302;2023-08-07T11:33:17;0.45;;;0.45;;
33162;SDS011;29282;45.656;11.302;2023-08-07T11:35:44;0.43;;;0.43;;
33162;SDS011;29282;45.656;11.302;2023-08-07T11:38:10;0.55;;;0.55;;
33162;SDS011;29282;45.656;11.302;2023-08-07T11:40:36;0.35;;;0.35;;
33162;SDS011;29282;45.656;11.302;2023-08-07T11:43:01;0.30;;;0.30;;
33162;SDS011;29282;45.656;11.302;2023-08-07T11:45:27;0.60;;;0.60;;
33162;SDS011;29282;45.656;11.302;2023-08-07T11:47:53;0.40;;;0.40;;
33162;SDS011;29282;45.656;11.302;2023-08-07T11:50:22;0.40;;;0.40;;
33162;SDS011;29282;45.656;11.302;2023-08-07T11:52:47;0.45;;;0.45;;
33162;SDS011;29282;45.656;11.302;2023-08-07T11:55:17;0.50;;;0.50;;
33162;SDS011;29282;45.656;11.302;2023-08-07T11:57:45;0.40;;;0.40;;
33162;SDS011;29282;45.656;11.302;2023-08-07T12:00:14;0.75;;;0.47;;
33162;SDS011;29282;45.656;11.302;2023-08-07T12:02:43;0.50;;;0.40;;
33162;SDS011;29282;45.656;11.302;2023-08-07T12:05:10;0.40;;;0.40;;
33162;SDS011;29282;45.656;11.302;2023-08-07T12:07:39;3.05;;;0.68;;
33162;SDS011;29282;45.656;11.302;2023-08-07T12:10:11;2.92;;;0.80;;
33162;SDS011;29282;45.656;11.302;2023-08-07T12:12:37;1.58;;;0.77;;
33162;SDS011;29282;45.656;11.302;2023-08-07T12:15:06;2.33;;;0.88;;
33162;SDS011;29282;45.656;11.302;2023-08-07T12:17:32;1.73;;;0.90;;
33162;SDS011;29282;45.656;11.302;2023-08-07T12:20:02;1.45;;;0.80;;
33162;SDS011;29282;45.656;11.302;2023-08-07T12:22:29;2.22;;;0.90;;
33162;SDS011;29282;45.656;11.302;2023-08-07T12:24:54;1.20;;;1.00;;
33162;SDS011;29282;45.656;11.302;2023-08-07T12:27:20;0.88;;;0.88;;
33162;SDS011;29282;45.656;11.302;2023-08-07T12:29:45;1.30;;;1.00;;
33162;SDS011;29282;45.656;11.302;2023-08-07T12:32:11;2.20;;;0.98;;
33162;SDS011;29282;45.656;11.302;2023-08-07T12:34:36;2.00;;;0.90;;
33162;SDS011;29282;45.656;11.302;2023-08-07T12:37:03;1.75;;;1.00;;
33162;SDS011;29282;45.656;11.302;2023-08-07T12:39:29;1.80;;;0.90;;
33162;SDS011;29282;45.656;11.302;2023-08-07T12:41:55;3.72;;;0.98;;
33162;SDS011;29282;45.656;11.302;2023-08-07T12:44:20;2.00;;;0.80;;
33162;SDS011;29282;45.656;11.302;2023-08-07T12:46:46;1.52;;;0.90;;
33162;SDS011;29282;45.656;11.302;2023-08-07T12:49:11;0.85;;;0.85;;
33162;SDS011;29282;45.656;11.302;2023-08-07T12:51:37;6.30;;;1.10;;
33162;SDS011;29282;45.656;11.302;2023-08-07T12:54:02;3.15;;;1.10;;
33162;SDS011;29282;45.656;11.302;2023-08-07T12:56:28;1.33;;;0.82;;
33162;SDS011;29282;45.656;11.302;2023-08-07T12:58:53;1.60;;;0.82;;
33162;SDS011;29282;45.656;11.302;2023-08-07T13:01:19;12.20;;;1.10;;
33162;SDS011;29282;45.656;11.302;2023-08-07T13:03:44;2.85;;;1.00;;
33162;SDS011;29282;45.656;11.302;2023-08-07T13:06:10;1.25;;;0.82;;
33162;SDS011;29282;45.656;11.302;2023-08-07T13:08:37;4.50;;;1.30;;
33162;SDS011;29282;45.656;11.302;2023-08-07T13:11:02;4.05;;;1.15;;
33162;SDS011;29282;45.656;11.302;2023-08-07T13:13:28;3.30;;;1.00;;
33162;SDS011;29282;45.656;11.302;2023-08-07T13:15:55;2.83;;;1.23;;
33162;SDS011;29282;45.656;11.302;2023-08-07T13:18:21;3.25;;;1.25;;
33162;SDS011;29282;45.656;11.302;2023-08-07T13:20:47;2.78;;;1.08;;
33162;SDS011;29282;45.656;11.302;2023-08-07T13:23:13;4.85;;;1.52;;
33162;SDS011;29282;45.656;11.302;2023-08-07T13:25:39;1.73;;;1.08;;
33162;SDS011;29282;45.656;11.302;2023-08-07T13:28:05;1.60;;;1.25;;
33162;SDS011;29282;45.656;11.302;2023-08-07T13:30:33;2.13;;;0.90;;
33162;SDS011;29282;45.656;11.302;2023-08-07T13:32:59;1.83;;;0.98;;
33162;SDS011;29282;45.656;11.302;2023-08-07T13:35:24;2.55;;;1.05;;
33162;SDS011;29282;45.656;11.302;2023-08-07T13:37:50;1.88;;;0.90;;
33162;SDS011;29282;45.656;11.302;2023-08-07T13:40:15;1.50;;;1.00;;
33162;SDS011;29282;45.656;11.302;2023-08-07T13:42:41;1.80;;;1.10;;
33162;SDS011;29282;45.656;11.302;2023-08-07T13:45:06;3.13;;;1.20;;
33162;SDS011;29282;45.656;11.302;2023-08-07T13:47:32;1.42;;;0.90;;
33162;SDS011;29282;45.656;11.302;2023-08-07T13:49:58;1.40;;;1.10;;
33162;SDS011;29282;45.656;11.302;2023-08-07T13:52:23;1.50;;;1.05;;
33162;SDS011;29282;45.656;11.302;2023-08-07T13:54:50;2.00;;;0.93;;
33162;SDS011;29282;45.656;11.302;2023-08-07T13:57:18;3.72;;;0.98;;
33162;SDS011;29282;45.656;11.302;2023-08-07T13:59:43;3.85;;;1.33;;
33162;SDS011;29282;45.656;11.302;2023-08-07T14:02:09;2.70;;;0.95;;
33162;SDS011;29282;45.656;11.302;2023-08-07T14:04:35;0.73;;;0.70;;
33162;SDS011;29282;45.656;11.302;2023-08-07T14:07:01;0.90;;;0.80;;
33162;SDS011;29282;45.656;11.302;2023-08-07T14:09:27;0.85;;;0.80;;
33162;SDS011;29282;45.656;11.302;2023-08-07T14:11:53;2.25;;;0.85;;
33162;SDS011;29282;45.656;11.302;2023-08-07T14:14:18;2.75;;;0.77;;
33162;SDS011;29282;45.656;11.302;2023-08-07T14:16:44;0.95;;;0.60;;
33162;SDS011;29282;45.656;11.302;2023-08-07T14:19:10;0.73;;;0.68;;
33162;SDS011;29282;45.656;11.302;2023-08-07T14:21:35;1.08;;;0.63;;
33162;SDS011;29282;45.656;11.302;2023-08-07T14:24:01;1.00;;;0.73;;
33162;SDS011;29282;45.656;11.302;2023-08-07T14:26:26;0.80;;;0.77;;
33162;SDS011;29282;45.656;11.302;2023-08-07T14:28:52;3.28;;;0.90;;
33162;SDS011;29282;45.656;11.302;2023-08-07T14:31:17;1.38;;;0.90;;
33162;SDS011;29282;45.656;11.302;2023-08-07T14:33:43;0.75;;;0.70;;
33162;SDS011;29282;45.656;11.302;2023-08-07T14:36:08;0.70;;;0.70;;
33162;SDS011;29282;45.656;11.302;2023-08-07T14:38:34;1.25;;;0.90;;
33162;SDS011;29282;45.656;11.302;2023-08-07T14:41:02;0.90;;;0.80;;
33162;SDS011;29282;45.656;11.302;2023-08-07T14:43:29;1.33;;;0.60;;
33162;SDS011;29282;45.656;11.302;2023-08-07T14:45:55;0.75;;;0.68;;
33162;SDS011;29282;45.656;11.302;2023-08-07T14:48:21;1.48;;;0.70;;
33162;SDS011;29282;45.656;11.302;2023-08-07T14:50:46;0.63;;;0.63;;